Time;durP1;ratioP1;P1;durP2;ratioP2;P2;SDS_P1;SDS_P2;PMS_P1;PMS_P2;Temp;Humidity;BMP_temperature;BMP_pressure;BME280_temperature;BME280_humidity;BME280_pressure;Samples;Min_cycle;Max_cycle;Signal;HPM_P1;HPM_P2
2021/11/14 11:57:24;;;;;;;3.13;2.92;;;9.10;99.90;;;;;;5071258;28;20546;-80
2021/11/14 12:00:00;;;;;;;3.85;3.65;;;9.00;99.90;;;;;;5070659;28;20308;-80
2021/11/14 12:02:27;;;;;;;3.65;3.45;;;9.00;99.90;;;;;;5070951;28;20164;-80
2021/11/14 12:04:56;;;;;;;3.55;3.45;;;9.90;99.90;;;;;;5069593;28;20176;-80
2021/11/14 12:07:27;;;;;;;3.33;3.13;;;9.20;99.90;;;;;;5070830;28;20228;-81
2021/11/14 12:09:58;;;;;;;4.00;3.78;;;9.00;99.90;;;;;;5070877;28;20164;-80
2021/11/14 12:12:28;;;;;;;3.80;3.60;;;9.00;99.90;;;;;;5069505;28;20169;-81
2021/11/14 12:15:10;;;;;;;5.05;4.75;;;9.10;99.90;;;;;;5069511;28;20267;-81
2021/11/14 12:17:39;;;;;;;4.55;4.25;;;9.00;99.90;;;;;;5069528;28;20234;-80
2021/11/14 12:20:13;;;;;;;5.25;4.85;;;9.50;99.90;;;;;;5070712;28;20211;-81
2021/11/14 12:22:49;;;;;;;5.15;4.78;;;9.50;99.90;;;;;;5070484;28;20621;-80
2021/11/14 12:25:30;;;;;;;5.15;4.72;;;9.00;99.90;;;;;;5069280;28;20168;-80
2021/11/14 12:28:08;;;;;;;5.13;4.72;;;9.00;99.90;;;;;;5070797;28;20165;-80
2021/11/14 12:30:42;;;;;;;6.15;5.15;;;9.00;99.90;;;;;;5070616;28;20157;-80
2021/11/14 12:33:19;;;;;;;7.07;6.30;;;9.00;99.90;;;;;;5070083;28;20176;-80
2021/11/14 12:35:45;;;;;;;5.55;5.15;;;9.00;99.90;;;;;;5053687;28;20206;-81
2021/11/14 12:38:19;;;;;;;6.50;5.95;;;9.10;99.90;;;;;;5070394;28;20179;-80
2021/11/14 12:40:52;;;;;;;5.72;5.32;;;9.50;99.90;;;;;;5069017;28;20172;-81
2021/11/14 13:12:24;;;;;;;7.95;5.72;;;8.80;99.90;;;;;;5091313;28;20562;-79
2021/11/14 13:14:55;;;;;;;7.25;6.53;;;8.90;99.90;;;;;;5090911;28;20180;-79
2021/11/14 13:17:23;;;;;;;6.20;5.63;;;8.90;99.90;;;;;;5091151;28;20152;-80
2021/11/14 13:19:49;;;;;;;5.72;5.32;;;8.90;99.90;;;;;;5091399;28;20498;-80
2021/11/14 13:22:19;;;;;;;7.20;6.43;;;8.90;99.90;;;;;;5091300;28;20250;-80
2021/11/14 13:24:53;;;;;;;6.85;6.13;;;8.90;99.90;;;;;;5089954;28;20593;-80
2021/11/14 13:27:20;;;;;;;7.30;6.60;;;8.90;99.90;;;;;;5090841;28;20179;-80
2021/11/14 13:58:41;;;;;;;4.95;4.45;;;8.60;99.90;;;;;;5091112;27;20578;-79
2021/11/14 14:01:08;;;;;;;10.70;5.15;;;9.00;99.90;;;;;;5091108;28;20195;-80
2021/11/14 14:03:42;;;;;;;6.20;5.70;;;9.50;99.90;;;;;;5089622;28;20177;-80
2021/11/14 14:06:10;;;;;;;6.55;5.80;;;8.80;99.90;;;;;;5091060;28;20156;-80
2021/11/14 14:08:36;;;;;;;4.95;4.65;;;8.80;99.90;;;;;;5091193;28;20168;-80
2021/11/14 14:11:05;;;;;;;4.47;4.07;;;9.40;99.90;;;;;;5090792;28;20637;-80
2021/11/14 14:13:32;;;;;;;4.28;3.97;;;8.90;99.90;;;;;;5091063;28;20178;-80
2021/11/14 14:15:58;;;;;;;4.28;3.97;;;9.60;99.90;;;;;;5089941;28;20171;-80
2021/11/14 14:18:26;;;;;;;3.70;3.50;;;9.30;99.90;;;;;;5090774;28;20755;-80
2021/11/14 14:21:03;;;;;;;4.97;3.72;;;8.90;99.90;;;;;;5089428;28;20176;-80
2021/11/14 14:23:30;;;;;;;4.15;3.40;;;9.00;99.90;;;;;;5089715;28;20171;-80
2021/11/14 14:25:56;;;;;;;3.35;3.15;;;8.90;99.90;;;;;;5089398;28;20171;-80
2021/11/14 14:28:25;;;;;;;3.15;2.95;;;8.80;99.90;;;;;;5090615;28;20525;-80
2021/11/14 14:30:56;;;;;;;3.25;3.05;;;8.90;99.90;;;;;;5090462;28;20179;-80
2021/11/14 14:33:22;;;;;;;3.40;3.20;;;8.90;99.90;;;;;;5090675;28;20637;-80
2021/11/14 14:35:53;;;;;;;2.78;2.67;;;9.80;99.90;;;;;;5090331;28;20195;-80
2021/11/14 14:38:27;;;;;;;3.60;3.40;;;10.10;99.90;;;;;;5090731;28;20188;-80
2021/11/14 14:40:55;;;;;;;3.70;3.20;;;10.00;99.90;;;;;;5090663;28;20171;-80
2021/11/14 14:43:23;;;;;;;3.83;3.53;;;9.30;99.90;;;;;;5090423;28;20247;-80
2021/11/14 14:46:02;;;;;;;3.67;3.38;;;9.20;99.90;;;;;;5090374;28;20171;-80
2021/11/14 14:48:32;;;;;;;4.18;3.90;;;9.20;99.90;;;;;;5090008;28;20175;-80
2021/11/14 14:51:07;;;;;;;4.15;3.90;;;9.20;99.90;;;;;;5090273;28;20255;-80
2021/11/14 14:53:50;;;;;;;4.63;4.32;;;9.20;99.90;;;;;;5090424;28;20175;-80
2021/11/14 14:56:20;;;;;;;4.53;4.20;;;9.10;99.90;;;;;;5090115;28;20160;-80
2021/11/14 14:58:57;;;;;;;4.90;4.32;;;9.00;99.90;;;;;;5090208;28;20172;-80
2021/11/14 15:01:29;;;;;;;4.50;4.20;;;8.90;99.90;;;;;;5088906;28;20168;-80
2021/11/14 15:04:09;;;;;;;4.97;4.68;;;8.80;99.90;;;;;;5090401;28;20676;-80
2021/11/14 15:06:37;;;;;;;5.40;5.00;;;8.70;99.90;;;;;;5090544;28;20615;-82
2021/11/14 15:09:02;;;;;;;5.25;4.90;;;8.60;99.90;;;;;;5081986;28;20208;-82
2021/11/14 15:11:32;;;;;;;6.97;5.20;;;8.60;99.90;;;;;;5076416;28;20679;-82
